createdAt,value
2023-02-08T07:40:47.197Z,94.57
2023-02-08T07:41:48.840Z,94.57
2023-02-08T07:42:47.160Z,94.57
2023-02-08T07:43:47.142Z,94.57
2023-02-08T07:44:47.170Z,94.57
2023-02-08T07:45:47.243Z,94.57
2023-02-08T07:46:47.122Z,94.57
2023-02-08T07:47:47.092Z,94.57
2023-02-08T07:48:47.117Z,94.57
2023-02-08T07:49:47.166Z,94.53
2023-02-08T07:50:48.539Z,94.64
2023-02-08T07:51:47.167Z,94.64
2023-02-08T07:52:48.556Z,94.49
2023-02-08T07:53:47.294Z,94.49
2023-02-08T07:54:47.026Z,94.49
2023-02-08T07:55:46.989Z,94.45
2023-02-08T07:56:47.007Z,94.34
2023-02-08T07:57:46.975Z,94.34
2023-02-08T07:58:47.026Z,94.29
2023-02-08T07:59:47.335Z,94.19
2023-02-08T08:00:47.041Z,94.15
2023-02-08T08:01:47.050Z,94.04
2023-02-08T08:02:46.949Z,94.04
2023-02-08T08:03:46.961Z,94.00
2023-02-08T08:04:46.938Z,93.89
2023-02-08T08:05:46.911Z,93.79
2023-02-08T08:06:46.925Z,93.64
2023-02-08T08:07:46.878Z,93.53
2023-02-08T08:08:46.908Z,93.49
2023-02-08T08:09:46.857Z,93.38
2023-02-08T08:10:46.888Z,93.28
2023-02-08T08:11:46.838Z,93.13
2023-02-08T08:12:47.328Z,93.02
2023-02-08T08:13:47.349Z,92.82
2023-02-08T08:14:46.817Z,92.46
2023-02-08T08:15:46.792Z,92.35
2023-02-08T08:16:46.824Z,92.20
2023-02-08T08:17:47.470Z,92.10
2023-02-08T08:18:46.789Z,91.99
2023-02-08T08:19:47.468Z,91.74
2023-02-08T08:20:47.192Z,91.53
2023-02-08T08:21:47.516Z,91.49
2023-02-08T08:22:46.747Z,91.28
2023-02-08T08:23:46.717Z,90.96
2023-02-08T08:24:46.697Z,90.60
2023-02-08T08:25:46.687Z,90.50
2023-02-08T08:26:46.691Z,90.18
2023-02-08T08:27:46.666Z,90.14
2023-02-08T08:28:47.029Z,89.82
2023-02-08T08:29:46.625Z,89.72
2023-02-08T08:30:50.874Z,89.68
2023-02-08T08:31:46.715Z,89.68
2023-02-08T08:32:46.637Z,89.22
2023-02-08T08:33:46.906Z,89.00
2023-02-08T08:34:46.731Z,88.90
2023-02-08T08:35:46.566Z,88.96
2023-02-08T08:36:46.589Z,89.17
2023-02-08T08:37:46.547Z,89.45
2023-02-08T08:38:46.551Z,89.66
2023-02-08T08:39:46.512Z,89.76
2023-02-08T08:40:46.524Z,89.62
2023-02-08T08:41:46.483Z,89.09
2023-02-08T08:42:46.535Z,88.57
2023-02-08T08:43:46.477Z,88.32
2023-02-08T08:44:46.481Z,87.90
2023-02-08T08:45:46.631Z,87.27
2023-02-08T08:46:46.477Z,86.95
2023-02-08T08:47:46.422Z,87.02
2023-02-08T08:48:46.441Z,87.12
2023-02-08T08:49:46.411Z,86.60
2023-02-08T08:50:46.978Z,86.03
2023-02-08T08:51:46.401Z,86.03
2023-02-08T08:52:46.405Z,85.61
2023-02-08T08:53:46.361Z,85.36
2023-02-08T08:54:46.497Z,84.84
2023-02-08T08:55:46.340Z,84.42
2023-02-08T08:56:46.342Z,83.44
2023-02-08T08:57:46.311Z,82.81
2023-02-08T08:58:46.351Z,82.28
2023-02-08T08:59:46.310Z,81.40
2023-02-08T09:00:46.422Z,79.62
2023-02-08T09:01:46.484Z,78.78
2023-02-08T09:02:46.262Z,78.74
2023-02-08T09:03:46.286Z,78.11
2023-02-08T09:04:46.238Z,77.80
2023-02-08T09:05:46.247Z,77.28
2023-02-08T09:06:46.214Z,76.61
2023-02-08T09:07:46.224Z,76.19
2023-02-08T09:08:46.195Z,77.31
2023-02-08T09:09:46.216Z,76.79
2023-02-08T09:10:46.173Z,77.94
2023-02-08T09:11:46.185Z,77.59
2023-02-08T09:12:46.195Z,76.75
2023-02-08T09:13:46.188Z,77.48
2023-02-08T09:14:46.141Z,75.78
2023-02-08T09:15:46.190Z,74.73
2023-02-08T09:16:46.122Z,74.52
2023-02-08T09:17:46.156Z,73.96
2023-02-08T09:18:46.093Z,73.86
2023-02-08T09:19:46.090Z,74.17
2023-02-08T09:20:46.325Z,73.30
2023-02-08T09:21:46.108Z,71.31
2023-02-08T09:22:46.161Z,67.76
2023-02-08T09:23:46.063Z,67.00
2023-02-08T09:24:46.045Z,68.57
2023-02-08T09:25:46.020Z,68.01
2023-02-08T09:26:46.004Z,67.07
2023-02-08T09:27:46.023Z,67.77
2023-02-08T09:28:46.013Z,68.29
2023-02-08T09:29:46.020Z,67.46
2023-02-08T09:30:46.205Z,66.62
2023-02-08T09:31:46.178Z,62.31
2023-02-08T09:32:45.922Z,59.49
2023-02-08T09:33:45.971Z,60.75
2023-02-08T09:34:45.899Z,62.49
2023-02-08T09:35:45.909Z,60.61
2023-02-08T09:36:45.894Z,61.87
2023-02-08T09:37:45.882Z,62.36
2023-02-08T09:38:45.872Z,57.77
2023-02-08T09:39:45.872Z,54.12
2023-02-08T09:40:45.837Z,52.74
2023-02-08T09:41:45.875Z,51.70
2023-02-08T09:42:45.892Z,50.34
2023-02-08T09:43:45.853Z,50.63
2023-02-08T09:44:45.833Z,48.34
2023-02-08T09:45:59.004Z,48.44
2023-02-08T09:46:46.871Z,49.46
2023-02-08T09:47:45.782Z,49.36
2023-02-08T09:48:45.779Z,49.26
2023-02-08T09:49:45.773Z,49.13
2023-02-08T09:50:45.734Z,48.50
2023-02-08T09:51:45.739Z,47.05
2023-02-08T09:52:45.701Z,47.65
2023-02-08T09:53:45.727Z,48.07
2023-02-08T09:54:45.696Z,47.96
2023-02-08T09:55:45.730Z,47.42
2023-02-08T09:56:45.662Z,47.31
2023-02-08T09:57:45.676Z,46.07
2023-02-08T09:58:45.666Z,45.65
2023-02-08T09:59:45.696Z,45.53
2023-02-08T10:00:45.918Z,45.42
2023-02-08T10:01:45.634Z,44.38
2023-02-08T10:02:45.743Z,43.66
2023-02-08T10:03:45.613Z,44.59
2023-02-08T10:04:45.583Z,45.09
2023-02-08T10:05:45.582Z,44.15
2023-02-08T10:06:45.550Z,44.15
2023-02-08T10:07:45.597Z,44.68
2023-02-08T10:08:45.579Z,43.63
2023-02-08T10:09:45.543Z,43.32
2023-02-08T10:10:45.537Z,43.62
2023-02-08T10:11:45.657Z,44.13
2023-02-08T10:12:45.534Z,43.72
2023-02-08T10:13:45.509Z,43.10
2023-02-08T10:14:45.485Z,43.30
2023-02-08T10:15:45.618Z,43.30
2023-02-08T10:16:45.428Z,43.08
2023-02-08T10:17:45.469Z,43.60
2023-02-08T10:18:45.401Z,44.32
2023-02-08T10:19:45.490Z,44.74
2023-02-08T10:20:45.646Z,43.99
2023-02-08T10:21:45.409Z,44.10
2023-02-08T10:22:45.375Z,43.99
2023-02-08T10:23:45.876Z,43.66
2023-02-08T10:24:45.348Z,43.04
2023-02-08T10:25:45.367Z,43.14
2023-02-08T10:26:45.351Z,42.50
2023-02-08T10:27:45.334Z,42.19
2023-02-08T10:28:45.398Z,41.98
2023-02-08T10:29:45.344Z,41.46
2023-02-08T10:30:45.593Z,41.36
2023-02-08T10:31:45.370Z,41.25
2023-02-08T10:32:45.373Z,41.05
2023-02-08T10:33:45.285Z,40.94
2023-02-08T10:34:45.271Z,41.44
2023-02-08T10:35:45.641Z,40.30
2023-02-08T10:36:45.393Z,40.41
2023-02-08T10:37:45.248Z,40.20
2023-02-08T10:38:47.109Z,40.20
2023-02-08T10:39:45.204Z,38.54
2023-02-08T10:40:45.266Z,38.02
2023-02-08T10:41:45.210Z,39.48
2023-02-08T10:42:45.182Z,39.97
2023-02-08T10:43:45.157Z,40.59
2023-02-08T10:44:46.909Z,40.18
2023-02-08T10:45:45.459Z,39.54
2023-02-08T10:46:45.163Z,39.85
2023-02-08T10:47:45.127Z,40.47
2023-02-08T10:48:45.083Z,39.85
2023-02-08T10:49:45.083Z,39.63
2023-02-08T10:50:45.083Z,39.22
2023-02-08T10:51:45.132Z,39.73
2023-02-08T10:52:45.035Z,37.87
2023-02-08T10:53:45.046Z,37.76
2023-02-08T10:54:45.035Z,37.95
2023-02-08T10:55:45.333Z,36.71
2023-02-08T10:56:45.095Z,36.69
2023-02-08T10:57:45.044Z,37.73
2023-02-08T10:58:44.989Z,36.37
2023-02-08T10:59:45.034Z,35.44
2023-02-08T11:00:44.964Z,35.33
2023-02-08T11:01:44.966Z,34.09
2023-02-08T11:02:44.910Z,34.32
2023-02-08T11:03:44.934Z,33.70
2023-02-08T11:04:44.941Z,35.14
2023-02-08T11:05:45.109Z,35.97
2023-02-08T11:06:44.862Z,35.14
2023-02-08T11:07:44.881Z,35.14
2023-02-08T11:08:44.829Z,35.66
2023-02-08T11:09:44.873Z,35.35
2023-02-08T11:10:44.830Z,35.25
2023-02-08T11:11:45.620Z,34.94
2023-02-08T11:12:44.803Z,34.01
2023-02-08T11:13:44.873Z,33.39
2023-02-08T11:14:47.372Z,33.58
2023-02-08T11:15:45.088Z,32.75
2023-02-08T11:16:44.782Z,33.06
2023-02-08T11:17:44.785Z,34.20
2023-02-08T11:18:44.740Z,34.29
2023-02-08T11:19:44.761Z,34.49
2023-02-08T11:20:44.689Z,34.59
2023-02-08T11:21:44.702Z,34.08
2023-02-08T11:22:44.701Z,32.32
2023-02-08T11:23:44.718Z,32.32
2023-02-08T11:24:44.661Z,33.34
2023-02-08T11:25:44.870Z,31.90
2023-02-08T11:26:44.700Z,31.69
2023-02-08T11:27:44.671Z,32.10
2023-02-08T11:28:45.111Z,31.90
2023-02-08T11:29:44.632Z,32.12
2023-02-08T11:30:44.642Z,31.09
2023-02-08T11:31:44.652Z,31.09
2023-02-08T11:32:44.563Z,32.64
2023-02-08T11:33:44.632Z,32.82
2023-02-08T11:34:44.541Z,32.21
2023-02-08T11:35:44.893Z,30.97
2023-02-08T11:36:44.544Z,32.10
2023-02-08T11:37:44.871Z,32.09
2023-02-08T11:38:44.516Z,31.16
2023-02-08T11:39:44.512Z,30.54
2023-02-08T11:40:44.493Z,30.95
2023-02-08T11:41:44.501Z,31.47
2023-02-08T11:42:44.458Z,33.12
2023-02-08T11:43:44.492Z,33.83
2023-02-08T11:44:44.807Z,33.21
2023-02-08T11:45:44.741Z,32.18
2023-02-08T11:46:44.405Z,31.66
2023-02-08T11:47:44.411Z,31.04
2023-02-08T11:48:44.416Z,30.52
2023-02-08T11:49:44.447Z,30.94
2023-02-08T11:50:44.446Z,31.04
2023-02-08T11:51:44.376Z,31.46
2023-02-08T11:52:44.331Z,31.25
2023-02-08T11:53:44.580Z,30.83
2023-02-08T11:54:44.350Z,29.70
2023-02-08T11:55:44.741Z,30.63
2023-02-08T11:56:44.282Z,30.62
2023-02-08T11:57:44.322Z,30.72
2023-02-08T11:58:44.391Z,30.30
2023-02-08T11:59:44.392Z,28.97
2023-02-08T12:00:44.312Z,29.48
2023-02-08T12:01:44.305Z,29.69
2023-02-08T12:02:44.298Z,31.23
2023-02-08T12:03:44.301Z,29.69
2023-02-08T12:04:44.221Z,30.00
2023-02-08T12:05:44.579Z,29.48
2023-02-08T12:06:44.179Z,29.05
2023-02-08T12:07:44.210Z,28.04
2023-02-08T12:08:44.169Z,29.38
2023-02-08T12:09:44.185Z,30.20
2023-02-08T12:10:44.164Z,29.38
2023-02-08T12:11:44.167Z,29.69
2023-02-08T12:12:44.128Z,29.48
2023-02-08T12:13:44.119Z,29.58
2023-02-08T12:14:44.098Z,30.29
2023-02-08T12:15:57.434Z,30.50
2023-02-08T12:16:45.074Z,29.78
2023-02-08T12:17:44.079Z,29.68
2023-02-08T12:18:45.554Z,29.35
2023-02-08T12:19:44.081Z,28.64
2023-02-08T12:20:44.043Z,28.03
2023-02-08T12:21:44.048Z,28.13
2023-02-08T12:22:44.028Z,27.72
2023-02-08T12:23:44.019Z,29.05
2023-02-08T12:24:43.990Z,29.47
2023-02-08T12:25:44.428Z,28.54
2023-02-08T12:26:44.167Z,26.89
2023-02-08T12:27:44.035Z,27.72
2023-02-08T12:28:43.990Z,27.42
2023-02-08T12:29:48.378Z,26.90
2023-02-08T12:30:43.994Z,27.11
2023-02-08T12:31:43.988Z,28.25
2023-02-08T12:32:43.965Z,27.62
2023-02-08T12:33:43.914Z,27.94
2023-02-08T12:34:43.915Z,28.14
2023-02-08T12:35:57.610Z,28.25
2023-02-08T12:36:44.845Z,28.97
2023-02-08T12:37:43.912Z,27.62
2023-02-08T12:38:43.842Z,27.01
2023-02-08T12:39:44.208Z,28.04
2023-02-08T12:40:43.794Z,28.46
2023-02-08T12:41:43.824Z,27.12
2023-02-08T12:42:43.764Z,28.05
2023-02-08T12:43:43.802Z,29.49
2023-02-08T12:44:43.900Z,28.77
2023-02-08T12:45:44.102Z,29.27
2023-02-08T12:46:43.733Z,28.25
2023-02-08T12:47:51.694Z,27.94
2023-02-08T12:48:44.714Z,28.04
2023-02-08T12:49:43.713Z,28.34
2023-02-08T12:50:43.701Z,28.14
2023-02-08T12:51:43.795Z,27.94
2023-02-08T12:52:43.664Z,29.07
2023-02-08T12:53:43.653Z,28.76
2023-02-08T12:54:43.668Z,28.04
2023-02-08T12:55:43.941Z,28.25
2023-02-08T12:56:48.480Z,29.69
2023-02-08T12:57:44.658Z,28.55
2023-02-08T12:58:43.643Z,29.16
2023-02-08T12:59:43.600Z,30.29
2023-02-08T13:00:43.949Z,29.36
2023-02-08T13:01:43.614Z,29.16
2023-02-08T13:02:43.687Z,28.33
2023-02-08T13:03:43.558Z,29.36
2023-02-08T13:04:43.560Z,28.54
2023-02-08T13:05:53.542Z,28.23
2023-02-08T13:06:44.865Z,28.25
2023-02-08T13:07:43.504Z,28.04
2023-02-08T13:08:43.515Z,29.27
2023-02-08T13:09:43.477Z,28.56
2023-02-08T13:10:43.483Z,29.19
2023-02-08T13:11:43.502Z,30.41
2023-02-08T13:12:43.469Z,28.16
2023-02-08T13:13:43.436Z,29.19
2023-02-08T13:14:43.448Z,28.67
2023-02-08T13:15:43.831Z,28.05
2023-02-08T13:16:43.403Z,28.98
2023-02-08T13:17:43.414Z,29.19
2023-02-08T13:18:43.404Z,30.00
2023-02-08T13:19:54.401Z,28.88
2023-02-08T13:20:45.322Z,28.97
2023-02-08T13:21:43.828Z,28.86
2023-02-08T13:22:43.367Z,29.48
2023-02-08T13:23:52.000Z,29.07
2023-02-08T13:24:44.334Z,29.38
2023-02-08T13:25:43.639Z,28.86
2023-02-08T13:26:43.465Z,29.27
2023-02-08T13:27:43.372Z,28.34
2023-02-08T13:28:43.480Z,27.94
2023-02-08T13:29:43.256Z,28.04
2023-02-08T13:30:43.524Z,28.66
2023-02-08T13:31:43.260Z,29.17
2023-02-08T13:32:44.281Z,29.90
2023-02-08T13:33:59.337Z,28.45
2023-02-08T13:34:44.220Z,29.38
2023-02-08T13:35:43.468Z,28.76
2023-02-08T13:36:43.223Z,28.56
2023-02-08T13:37:43.185Z,29.39
2023-02-08T13:38:43.242Z,28.77
2023-02-08T13:39:44.001Z,28.77
2023-02-08T13:40:43.453Z,28.16
2023-02-08T13:41:43.164Z,28.26
2023-02-08T13:42:43.136Z,29.29
2023-02-08T13:43:43.095Z,29.07
2023-02-08T13:44:43.127Z,29.38
2023-02-08T13:45:43.073Z,29.58
2023-02-08T13:46:43.209Z,29.38
2023-02-08T13:47:43.087Z,28.97
2023-02-08T13:48:43.120Z,28.88
2023-02-08T13:49:43.116Z,29.27
2023-02-08T13:50:43.345Z,30.30
2023-02-08T13:51:43.015Z,29.79
2023-02-08T13:52:48.481Z,29.58
2023-02-08T13:53:44.001Z,29.17
2023-02-08T13:54:43.018Z,30.41
2023-02-08T13:55:43.251Z,29.38
2023-02-08T13:56:42.981Z,29.17
2023-02-08T13:57:42.937Z,29.38
2023-02-08T13:58:42.935Z,28.55
2023-02-08T13:59:42.898Z,29.69
2023-02-08T14:00:43.116Z,28.86
2023-02-08T14:01:42.948Z,29.69
2023-02-08T14:02:42.979Z,29.69
2023-02-08T14:03:42.863Z,29.38
2023-02-08T14:04:42.879Z,29.58
2023-02-08T14:05:43.230Z,30.00
2023-02-08T14:06:42.871Z,30.20
2023-02-08T14:07:42.834Z,30.72
2023-02-08T14:08:43.346Z,30.62
2023-02-08T14:09:42.805Z,30.41
2023-02-08T14:10:43.186Z,29.80
2023-02-08T14:11:42.784Z,29.70
2023-02-08T14:12:42.792Z,29.19
2023-02-08T14:13:42.748Z,30.94
2023-02-08T14:14:42.763Z,30.73
2023-02-08T14:15:43.025Z,29.91
2023-02-08T14:16:42.752Z,30.22
2023-02-08T14:17:42.714Z,30.32
2023-02-08T14:18:42.711Z,30.73
2023-02-08T14:19:42.690Z,31.04
2023-02-08T14:20:42.712Z,28.36
2023-02-08T14:21:42.924Z,29.19
2023-02-08T14:22:42.735Z,29.51
2023-02-08T14:23:42.624Z,30.23
2023-02-08T14:24:42.687Z,28.99
2023-02-08T14:25:42.995Z,30.54
2023-02-08T14:26:42.648Z,29.41
2023-02-08T14:27:42.888Z,29.61
2023-02-08T14:28:42.688Z,29.10
2023-02-08T14:29:42.561Z,29.41
2023-02-08T14:30:42.953Z,29.82
2023-02-08T14:31:42.651Z,29.51
2023-02-08T14:32:42.582Z,30.02
2023-02-08T14:33:42.530Z,30.54
2023-02-08T14:34:42.571Z,29.20
2023-02-08T14:35:42.827Z,29.10
2023-02-08T14:36:42.537Z,29.92
2023-02-08T14:37:42.477Z,30.23
2023-02-08T14:38:43.088Z,29.51
2023-02-08T14:39:42.648Z,29.63
2023-02-08T14:40:42.819Z,30.55
2023-02-08T14:41:42.657Z,30.24
2023-02-08T14:42:42.657Z,30.04
2023-02-08T14:43:42.448Z,31.18
2023-02-08T14:44:42.459Z,30.35
2023-02-08T14:45:45.588Z,30.04
2023-02-08T14:46:42.471Z,30.24
2023-02-08T14:47:42.359Z,30.76
2023-02-08T14:48:42.499Z,30.35
2023-02-08T14:49:42.527Z,30.45
2023-02-08T14:50:42.358Z,30.45
2023-02-08T14:51:42.318Z,30.04
2023-02-08T14:52:42.505Z,30.04
2023-02-08T14:53:42.302Z,31.19
2023-02-08T14:54:42.351Z,31.50
2023-02-08T14:55:42.567Z,31.69
2023-02-08T14:56:42.352Z,31.18
2023-02-08T14:57:42.249Z,32.22
2023-02-08T14:58:42.286Z,31.81
2023-02-08T14:59:42.227Z,32.64
2023-02-08T15:00:42.335Z,32.84
2023-02-08T15:01:45.265Z,32.53
2023-02-08T15:02:42.276Z,33.56
2023-02-08T15:03:42.293Z,33.77
2023-02-08T15:04:42.220Z,32.74
2023-02-08T15:05:42.472Z,32.03
2023-02-08T15:06:42.217Z,31.72
2023-02-08T15:07:42.153Z,32.15
2023-02-08T15:08:42.237Z,32.46
2023-02-08T15:09:42.232Z,32.04
2023-02-08T15:10:42.548Z,32.98
2023-02-08T15:11:42.266Z,33.28
2023-02-08T15:12:42.108Z,33.49
2023-02-08T15:13:42.076Z,34.01
2023-02-08T15:14:42.109Z,34.32
2023-02-08T15:15:42.073Z,33.91
2023-02-08T15:16:42.078Z,33.09
2023-02-08T15:17:42.017Z,33.72
2023-02-08T15:18:42.042Z,34.33
2023-02-08T15:19:42.001Z,34.54
2023-02-08T15:20:42.216Z,34.12
2023-02-08T15:21:42.006Z,34.64
2023-02-08T15:22:42.138Z,35.18
2023-02-08T15:23:42.116Z,35.08
2023-02-08T15:24:41.966Z,34.97
2023-02-08T15:25:41.925Z,34.87
2023-02-08T15:26:41.946Z,35.18
2023-02-08T15:27:41.910Z,35.40
2023-02-08T15:28:41.935Z,34.27
2023-02-08T15:29:44.743Z,35.71
2023-02-08T15:30:42.322Z,35.71
2023-02-08T15:31:41.908Z,34.90
2023-02-08T15:32:41.870Z,35.83
2023-02-08T15:33:41.835Z,36.87
2023-02-08T15:34:41.884Z,35.13
2023-02-08T15:35:41.805Z,34.61
2023-02-08T15:36:41.829Z,34.19
2023-02-08T15:37:41.804Z,34.30
2023-02-08T15:38:41.803Z,33.79
2023-02-08T15:39:41.775Z,34.31
2023-02-08T15:40:42.153Z,34.31
2023-02-08T15:41:41.780Z,34.01
2023-02-08T15:42:41.965Z,34.43
2023-02-08T15:43:41.760Z,34.74
2023-02-08T15:44:41.980Z,34.22
2023-02-08T15:45:41.723Z,33.81
2023-02-08T15:46:41.837Z,34.55
2023-02-08T15:47:41.682Z,34.34
2023-02-08T15:48:41.684Z,34.76
2023-02-08T15:49:41.797Z,35.49
2023-02-08T15:50:42.250Z,36.00
2023-02-08T15:51:41.712Z,35.60
2023-02-08T15:52:41.666Z,35.71
2023-02-08T15:53:41.715Z,36.64
2023-02-08T15:54:41.602Z,35.81
2023-02-08T15:55:41.874Z,36.66
2023-02-08T15:56:42.669Z,36.87
2023-02-08T15:57:41.582Z,37.70
2023-02-08T15:58:41.563Z,37.38
2023-02-08T15:59:41.590Z,37.28
2023-02-08T16:00:41.696Z,36.57
2023-02-08T16:01:41.540Z,37.40
2023-02-08T16:02:41.590Z,37.82
2023-02-08T16:03:41.612Z,37.19
2023-02-08T16:04:41.487Z,38.02
2023-02-08T16:05:41.494Z,37.82
2023-02-08T16:06:41.493Z,37.92
2023-02-08T16:07:41.471Z,37.40
2023-02-08T16:08:41.440Z,38.15
2023-02-08T16:09:41.473Z,38.15
2023-02-08T16:10:41.765Z,37.84
2023-02-08T16:11:41.540Z,38.04
2023-02-08T16:12:41.458Z,38.35
2023-02-08T16:13:41.403Z,38.77
2023-02-08T16:14:52.224Z,39.51
2023-02-08T16:15:42.413Z,39.31
2023-02-08T16:16:41.398Z,39.20
2023-02-08T16:17:41.363Z,39.72
2023-02-08T16:18:41.340Z,39.51
2023-02-08T16:19:41.331Z,39.53
2023-02-08T16:20:41.351Z,40.78
2023-02-08T16:21:41.349Z,41.20
2023-02-08T16:22:41.287Z,42.05
2023-02-08T16:23:41.290Z,42.99
2023-02-08T16:24:41.273Z,42.69
2023-02-08T16:25:41.263Z,42.90
2023-02-08T16:26:41.233Z,43.63
2023-02-08T16:27:41.264Z,45.11
2023-02-08T16:28:41.232Z,46.36
2023-02-08T16:29:41.264Z,47.01
2023-02-08T16:30:41.428Z,47.42
2023-02-08T16:31:41.401Z,48.18
2023-02-08T16:32:41.333Z,49.22
2023-02-08T16:33:41.224Z,49.63
2023-02-08T16:34:41.156Z,50.05
2023-02-08T16:35:41.177Z,50.49
2023-02-08T16:36:41.165Z,51.43
2023-02-08T16:37:41.154Z,51.35
2023-02-08T16:38:41.105Z,52.61
2023-02-08T16:39:41.134Z,53.23
2023-02-08T16:40:41.452Z,53.25
2023-02-08T16:41:41.091Z,53.99
2023-02-08T16:42:41.148Z,54.01
2023-02-08T16:43:41.771Z,53.80
2023-02-08T16:44:41.174Z,53.80
2023-02-08T16:45:41.057Z,54.77
2023-02-08T16:46:41.038Z,56.02
2023-02-08T16:47:41.052Z,56.34
2023-02-08T16:48:41.025Z,56.88
2023-02-08T16:49:41.015Z,56.36
2023-02-08T16:50:41.161Z,56.26
2023-02-08T16:51:41.212Z,56.70
2023-02-08T16:52:40.960Z,57.33
2023-02-08T16:53:42.578Z,57.64
2023-02-08T16:54:40.934Z,58.90
2023-02-08T16:55:40.936Z,59.53
2023-02-08T16:56:40.917Z,60.28
2023-02-08T16:57:40.919Z,59.86
2023-02-08T16:58:40.911Z,59.86
2023-02-08T16:59:40.951Z,60.08
2023-02-08T17:00:40.884Z,60.63
2023-02-08T17:01:40.980Z,60.52
2023-02-08T17:02:40.835Z,61.05
2023-02-08T17:03:40.979Z,61.25
2023-02-08T17:04:40.850Z,60.83
2023-02-08T17:05:40.832Z,60.83
2023-02-08T17:06:40.882Z,61.46
2023-02-08T17:07:40.813Z,61.46
2023-02-08T17:08:40.799Z,61.49
2023-02-08T17:09:40.783Z,61.49
2023-02-08T17:10:40.778Z,61.28
2023-02-08T17:11:40.769Z,60.97
2023-02-08T17:12:40.733Z,60.86
2023-02-08T17:13:40.756Z,60.97
2023-02-08T17:14:40.714Z,61.07
2023-02-08T17:15:40.849Z,61.70
2023-02-08T17:16:40.686Z,61.83
2023-02-08T17:17:40.689Z,62.57
2023-02-08T17:18:40.655Z,63.82
2023-02-08T17:19:40.685Z,64.56
2023-02-08T17:20:40.645Z,64.48
2023-02-08T17:21:40.693Z,64.90
2023-02-08T17:22:40.664Z,64.59
2023-02-08T17:23:40.636Z,64.69
2023-02-08T17:24:40.630Z,65.01
2023-02-08T17:25:40.618Z,65.11
2023-02-08T17:26:40.582Z,65.25
2023-02-08T17:27:40.632Z,65.77
2023-02-08T17:28:40.563Z,66.09
2023-02-08T17:29:40.572Z,66.61
2023-02-08T17:30:40.652Z,67.24
2023-02-08T17:31:40.552Z,67.38
2023-02-08T17:32:40.645Z,67.38
2023-02-08T17:33:40.524Z,67.38
2023-02-08T17:34:40.501Z,67.48
2023-02-08T17:35:40.532Z,67.48
2023-02-08T17:36:42.636Z,67.69
2023-02-08T17:37:40.469Z,67.69
2023-02-08T17:38:40.467Z,67.61
2023-02-08T17:39:40.457Z,67.72
2023-02-08T17:40:40.466Z,68.04
2023-02-08T17:41:40.637Z,68.35
2023-02-08T17:42:40.394Z,69.01
2023-02-08T17:43:40.413Z,70.17
2023-02-08T17:44:40.389Z,70.90
2023-02-08T17:45:40.476Z,71.11
2023-02-08T17:46:40.393Z,71.22
2023-02-08T17:47:40.361Z,71.22
2023-02-08T17:48:40.331Z,71.33
2023-02-08T17:49:40.380Z,71.53
2023-02-08T17:50:40.305Z,71.78
2023-02-08T17:51:40.319Z,71.78
2023-02-08T17:52:40.484Z,71.78
2023-02-08T17:53:40.415Z,72.30
2023-02-08T17:54:40.272Z,72.41
2023-02-08T17:55:40.286Z,72.97
2023-02-08T17:56:40.241Z,73.07
2023-02-08T17:57:40.274Z,73.28
2023-02-08T17:58:40.234Z,73.60
2023-02-08T17:59:40.230Z,73.70
2023-02-08T18:00:40.209Z,73.91
2023-02-08T18:01:40.227Z,73.70
2023-02-08T18:02:40.272Z,73.60
2023-02-08T18:03:40.195Z,73.70
2023-02-08T18:04:40.281Z,74.05
2023-02-08T18:05:41.353Z,73.84
2023-02-08T18:06:40.270Z,74.05
2023-02-08T18:07:40.121Z,76.54
2023-02-08T18:08:40.090Z,77.70
2023-02-08T18:09:40.115Z,77.91
2023-02-08T18:10:40.222Z,77.59
2023-02-08T18:11:40.110Z,76.54
2023-02-08T18:12:40.059Z,75.17
2023-02-08T18:13:40.262Z,74.76
2023-02-08T18:14:40.051Z,74.44
2023-02-08T18:15:40.099Z,74.76
2023-02-08T18:16:40.069Z,75.28
2023-02-08T18:17:40.027Z,74.54
2023-02-08T18:18:39.971Z,74.12
2023-02-08T18:19:40.041Z,75.17
2023-02-08T18:20:39.969Z,75.38
2023-02-08T18:21:39.997Z,75.31
2023-02-08T18:22:39.943Z,75.00
2023-02-08T18:23:39.957Z,74.47
2023-02-08T18:24:39.959Z,74.16
2023-02-08T18:25:39.958Z,74.16
2023-02-08T18:26:40.223Z,74.40
2023-02-08T18:27:39.906Z,74.51
2023-02-08T18:28:39.896Z,74.40
2023-02-08T18:29:39.878Z,74.29
2023-02-08T18:30:39.870Z,74.51
2023-02-08T18:31:40.080Z,74.82
2023-02-08T18:32:39.841Z,74.93
2023-02-08T18:33:39.849Z,74.93
2023-02-08T18:34:39.803Z,75.13
2023-02-08T18:35:39.814Z,75.27
2023-02-08T18:36:39.819Z,75.59
2023-02-08T18:37:39.866Z,76.12
2023-02-08T18:38:39.761Z,76.54
2023-02-08T18:39:39.915Z,76.86
2023-02-08T18:40:39.782Z,76.54
2023-02-08T18:41:39.774Z,76.43
2023-02-08T18:42:39.726Z,76.43
2023-02-08T18:43:39.721Z,76.43
2023-02-08T18:44:39.693Z,76.54
2023-02-08T18:45:39.693Z,76.86
2023-02-08T18:46:39.834Z,77.17
2023-02-08T18:47:39.705Z,77.59
2023-02-08T18:48:39.630Z,78.02
2023-02-08T18:49:39.679Z,78.12
2023-02-08T18:50:39.626Z,78.26
2023-02-08T18:51:39.657Z,78.26
2023-02-08T18:52:39.620Z,78.26
2023-02-08T18:53:39.699Z,78.36
2023-02-08T18:54:39.835Z,78.36
2023-02-08T18:55:39.611Z,78.47
2023-02-08T18:56:39.570Z,78.58
2023-02-08T18:57:39.564Z,78.82
2023-02-08T18:58:39.552Z,78.92
2023-02-08T18:59:39.542Z,79.35
2023-02-08T19:00:39.535Z,79.66
2023-02-08T19:01:39.534Z,79.88
2023-02-08T19:02:39.764Z,80.19
2023-02-08T19:03:39.531Z,80.19
2023-02-08T19:04:39.486Z,80.19
2023-02-08T19:05:39.469Z,80.19
2023-02-08T19:06:39.533Z,80.19
2023-02-08T19:07:39.541Z,80.19
2023-02-08T19:08:39.422Z,80.19
2023-02-08T19:09:39.427Z,80.12
2023-02-08T19:10:39.407Z,80.12
2023-02-08T19:11:39.413Z,80.33
2023-02-08T19:12:39.379Z,80.33
2023-02-08T19:13:39.386Z,80.23
2023-02-08T19:14:39.335Z,80.23
2023-02-08T19:15:39.413Z,80.12
2023-02-08T19:16:39.376Z,80.12
2023-02-08T19:17:39.341Z,80.23
2023-02-08T19:18:39.347Z,80.23
2023-02-08T19:19:39.354Z,79.80
2023-02-08T19:20:39.293Z,79.80
2023-02-08T19:21:39.300Z,79.70
2023-02-08T19:22:39.256Z,79.66
2023-02-08T19:23:39.285Z,79.80
2023-02-08T19:24:39.235Z,79.66
2023-02-08T19:25:39.250Z,79.14
2023-02-08T19:26:39.216Z,79.24
2023-02-08T19:27:39.224Z,79.35
2023-02-08T19:28:39.211Z,79.46
2023-02-08T19:29:39.227Z,79.49
2023-02-08T19:30:39.258Z,79.49
2023-02-08T19:31:39.327Z,79.60
2023-02-08T19:32:39.185Z,79.60
2023-02-08T19:33:39.190Z,79.70
2023-02-08T19:34:39.251Z,79.70
2023-02-08T19:35:39.440Z,79.80
2023-02-08T19:36:39.146Z,79.84
2023-02-08T19:37:39.142Z,80.16
2023-02-08T19:38:39.187Z,80.47
2023-02-08T19:39:39.124Z,80.79
2023-02-08T19:40:39.084Z,81.01
2023-02-08T19:41:39.102Z,81.11
2023-02-08T19:42:39.089Z,81.11
2023-02-08T19:43:39.055Z,81.11
2023-02-08T19:44:39.104Z,81.53
2023-02-08T19:45:39.049Z,81.85
2023-02-08T19:46:39.069Z,82.06
2023-02-08T19:47:50.701Z,82.06
2023-02-08T19:48:40.055Z,82.17
2023-02-08T19:49:39.018Z,82.06
2023-02-08T19:50:38.967Z,81.95
2023-02-08T19:51:39.007Z,81.95
2023-02-08T19:52:38.988Z,82.09
2023-02-08T19:53:38.965Z,82.09
2023-02-08T19:54:38.983Z,82.20
2023-02-08T19:55:38.964Z,82.41
2023-02-08T19:56:38.898Z,82.83
2023-02-08T19:57:38.944Z,82.94
2023-02-08T19:58:38.890Z,82.94
2023-02-08T19:59:38.926Z,83.04
2023-02-08T20:00:38.866Z,83.18
2023-02-08T20:01:38.884Z,83.50
2023-02-08T20:02:38.861Z,83.82
2023-02-08T20:03:38.867Z,83.93
2023-02-08T20:04:38.847Z,84.14
2023-02-08T20:05:38.806Z,84.45
2023-02-08T20:06:38.842Z,84.56
2023-02-08T20:07:38.828Z,84.56
2023-02-08T20:08:39.097Z,84.56
2023-02-08T20:09:38.786Z,84.56
2023-02-08T20:10:38.802Z,84.56
2023-02-08T20:11:54.820Z,84.56
2023-02-08T20:12:39.761Z,84.45
2023-02-08T20:13:38.777Z,84.45
2023-02-08T20:14:38.758Z,84.35
2023-02-08T20:15:38.718Z,84.24
2023-02-08T20:16:38.730Z,84.35
2023-02-08T20:17:38.731Z,84.45
2023-02-08T20:18:38.683Z,84.56
2023-02-08T20:19:38.653Z,84.67
2023-02-08T20:20:38.673Z,84.91
2023-02-08T20:21:38.626Z,85.02
2023-02-08T20:22:38.649Z,85.02
2023-02-08T20:23:38.600Z,85.13
2023-02-08T20:24:38.627Z,85.23
2023-02-08T20:25:38.582Z,85.34
2023-02-08T20:26:38.620Z,85.44
2023-02-08T20:27:38.620Z,85.66
2023-02-08T20:28:38.636Z,85.86
2023-02-08T20:29:39.698Z,85.76
2023-02-08T20:30:38.887Z,85.76
2023-02-08T20:31:38.571Z,85.66
2023-02-08T20:32:38.553Z,85.55